Time;durP1;ratioP1;P1;durP2;ratioP2;P2;SDS_P1;SDS_P2;PMS_P1;PMS_P2;Temp;Humidity;BMP_temperature;BMP_pressure;BME280_temperature;BME280_humidity;BME280_pressure;Samples;Min_cycle;Max_cycle;Signal;HPM_P1;HPM_P2
2022/08/22 00:01:09;;;;;;;21.75;14.90;;;;;;;18.51;44.27;99809.38;5033258;28;20585;-62
2022/08/22 00:03:58;;;;;;;22.17;13.68;;;;;;;18.50;43.86;99806.97;5035097;28;20055;-64
2022/08/22 00:06:59;;;;;;;21.70;13.05;;;;;;;18.50;43.78;99813.16;5034246;28;20029;-63
2022/08/22 00:09:41;;;;;;;18.48;13.65;;;;;;;18.51;43.15;99817.44;4994952;28;20661;-61
2022/08/22 00:12:21;;;;;;;23.42;14.30;;;;;;;18.46;43.00;99801.34;5020462;28;20099;-62
2022/08/22 00:15:07;;;;;;;24.17;14.25;;;;;;;18.47;42.84;99802.97;5016860;28;20363;-62
2022/08/22 00:18:07;;;;;;;26.05;13.68;;;;;;;18.52;43.28;99818.22;5033148;28;20050;-64
2022/08/22 00:21:11;;;;;;;26.23;14.88;;;;;;;18.52;42.94;99816.34;5033992;28;20080;-61
2022/08/22 00:23:54;;;;;;;27.02;13.68;;;;;;;18.51;43.04;99813.97;5031519;28;20053;-62
2022/08/22 00:26:39;;;;;;;37.08;15.13;;;;;;;18.50;43.07;99818.53;5032730;28;20042;-61
2022/08/22 00:29:18;;;;;;;36.05;15.40;;;;;;;18.49;43.46;99818.78;5032974;28;20033;-62
2022/08/22 00:32:00;;;;;;;30.85;16.70;;;;;;;18.46;43.33;99817.47;5012795;28;20054;-61
2022/08/22 00:34:34;;;;;;;32.10;15.48;;;;;;;18.39;43.45;99809.72;5030036;28;20041;-62
2022/08/22 00:37:18;;;;;;;29.67;16.15;;;;;;;18.43;43.61;99812.66;5032811;28;20046;-61
2022/08/22 00:39:53;;;;;;;28.83;16.67;;;;;;;18.45;43.52;99817.75;5034063;28;20047;-63
2022/08/22 00:43:03;;;;;;;26.85;15.98;;;;;;;18.43;43.85;99818.03;5033718;28;20037;-63
2022/08/22 00:46:06;;;;;;;28.48;17.65;;;;;;;18.43;43.83;99812.66;5014407;28;20518;-61
2022/08/22 00:48:50;;;;;;;35.10;17.70;;;;;;;18.43;43.76;99815.34;5032492;28;20056;-63
2022/08/22 00:51:31;;;;;;;37.63;18.77;;;;;;;18.42;43.96;99808.38;5033409;28;20056;-62
2022/08/22 00:54:22;;;;;;;27.42;17.52;;;;;;;18.42;44.04;99816.44;5033856;28;20053;-63
2022/08/22 00:56:51;;;;;;;36.10;18.63;;;;;;;18.42;44.04;99812.94;5033612;28;20049;-62
2022/08/22 00:59:25;;;;;;;35.70;19.27;;;;;;;18.41;44.55;99816.69;5033596;28;20037;-64
2022/08/22 01:02:00;;;;;;;30.85;20.02;;;;;;;18.40;44.77;99818.56;5031727;28;20426;-61
2022/08/22 01:04:55;;;;;;;34.55;20.23;;;;;;;18.38;44.53;99816.19;5031671;28;20122;-64
2022/08/22 01:07:28;;;;;;;37.25;19.77;;;;;;;18.39;44.87;99809.72;5018358;28;20498;-62
2022/08/22 01:10:13;;;;;;;37.22;19.88;;;;;;;18.41;44.69;99822.06;5031670;28;20052;-63
2022/08/22 01:12:57;;;;;;;34.35;19.77;;;;;;;18.42;44.83;99813.75;5033502;28;20052;-63
2022/08/22 01:15:28;;;;;;;29.90;21.67;;;;;;;18.49;44.15;99821.47;5032184;28;20497;-62
2022/08/22 01:18:04;;;;;;;32.15;22.55;;;;;;;18.55;43.51;99829.22;5032117;28;20114;-61
2022/08/22 01:21:07;;;;;;;35.85;21.85;;;;;;;18.61;44.09;99835.34;5032780;28;20045;-62
2022/08/22 01:23:55;;;;;;;38.50;23.80;;;;;;;18.67;42.96;99828.06;5033385;28;20529;-62
2022/08/22 01:26:20;;;;;;;36.83;25.02;;;;;;;18.74;43.08;99831.28;5031574;28;20392;-62
2022/08/22 01:28:58;;;;;;;36.92;25.08;;;;;;;18.74;43.29;99842.00;5032581;28;20091;-62
2022/08/22 01:31:27;;;;;;;39.72;26.27;;;;;;;18.81;43.29;99837.91;5032836;28;20072;-62
2022/08/22 01:34:30;;;;;;;49.47;28.00;;;;;;;18.87;43.31;99833.31;5031551;28;20148;-62
2022/08/22 01:37:54;;;;;;;42.05;28.52;;;;;;;18.93;44.27;99834.84;5031489;28;20046;-63
2022/08/22 01:40:56;;;;;;;39.13;27.58;;;;;;;18.97;44.38;99833.22;5009874;28;20054;-63
2022/08/22 01:43:40;;;;;;;38.67;27.45;;;;;;;18.97;44.31;99827.84;5033124;28;20099;-62
2022/08/22 01:46:12;;;;;;;50.95;29.75;;;;;;;18.99;45.08;99827.56;5014842;28;20415;-63
2022/08/22 01:48:51;;;;;;;41.83;29.05;;;;;;;18.96;44.32;99826.22;5031221;28;20426;-61
2022/08/22 01:51:25;;;;;;;50.25;31.65;;;;;;;18.96;44.83;99825.44;5032552;28;20103;-62
2022/08/22 01:54:02;;;;;;;48.40;32.72;;;;;;;18.96;45.44;99826.22;5031309;28;20453;-63
2022/08/22 01:56:34;;;;;;;45.38;30.33;;;;;;;18.93;45.28;99824.13;5031312;28;20111;-62
2022/08/22 01:59:23;;;;;;;48.03;32.78;;;;;;;18.92;45.05;99829.78;5032585;28;20398;-62
2022/08/22 02:01:49;;;;;;;46.90;30.75;;;;;;;18.92;45.83;99819.84;5032574;28;20187;-62
2022/08/22 02:04:39;;;;;;;49.30;31.45;;;;;;;18.92;46.30;99821.72;5032105;28;20608;-61
2022/08/22 02:07:22;;;;;;;46.78;31.40;;;;;;;18.87;45.77;99827.94;5010673;28;20144;-62
2022/08/22 02:10:07;;;;;;;47.40;31.05;;;;;;;18.86;45.36;99839.75;5022924;28;20045;-62
2022/08/22 02:12:42;;;;;;;47.33;31.20;;;;;;;18.89;45.06;99846.47;5032446;28;20053;-64
2022/08/22 02:15:43;;;;;;;47.40;31.52;;;;;;;18.89;44.27;99835.72;5030295;28;20049;-62
2022/08/22 02:18:21;;;;;;;50.22;32.13;;;;;;;18.92;44.90;99840.53;5022387;28;20041;-63
2022/08/22 02:20:46;;;;;;;50.45;32.47;;;;;;;18.93;44.55;99834.06;5030615;28;20052;-62
2022/08/22 02:23:23;;;;;;;51.72;31.40;;;;;;;18.93;44.55;99834.84;5032267;28;20049;-63
2022/08/22 02:26:03;;;;;;;50.00;33.65;;;;;;;18.99;44.20;99841.78;5031540;28;20037;-62
2022/08/22 02:28:46;;;;;;;49.10;32.15;;;;;;;18.99;44.27;99825.66;5030576;28;20550;-63
2022/08/22 02:31:35;;;;;;;49.63;31.58;;;;;;;18.96;46.55;99825.44;5030503;28;20061;-63
2022/08/22 02:34:16;;;;;;;57.25;34.13;;;;;;;18.88;46.80;99820.66;5026250;28;20632;-62
2022/08/22 02:37:38;;;;;;;54.20;33.22;;;;;;;18.82;47.59;99812.69;5030774;28;20037;-63
2022/08/22 02:40:20;;;;;;;52.25;33.28;;;;;;;18.75;49.35;99806.81;4964405;28;20122;-63
2022/08/22 02:43:08;;;;;;;55.25;34.70;;;;;;;18.66;48.40;99813.03;5030466;28;20081;-63
2022/08/22 02:45:43;;;;;;;54.53;35.17;;;;;;;18.60;47.45;99802.34;5030031;28;20430;-64
2022/08/22 02:48:26;;;;;;;58.53;36.85;;;;;;;18.59;47.43;99800.75;5030508;28;20442;-63
2022/08/22 02:51:05;;;;;;;61.35;36.78;;;;;;;18.57;47.17;99807.47;5030183;28;20498;-63
2022/08/22 02:54:07;;;;;;;65.00;38.03;;;;;;;18.56;47.45;99808.53;5014018;28;20045;-61
2022/08/22 02:56:44;;;;;;;64.70;38.97;;;;;;;18.53;47.85;99814.47;5010682;28;20058;-64
2022/08/22 02:59:22;;;;;;;64.53;39.72;;;;;;;18.48;47.47;99817.19;5011714;28;20044;-63
2022/08/22 03:01:50;;;;;;;70.43;43.10;;;;;;;18.49;47.32;99818.78;5030216;28;20041;-63
2022/08/22 03:04:31;;;;;;;73.53;44.15;;;;;;;18.49;47.25;99834.91;5031443;28;20038;-62
2022/08/22 03:07:20;;;;;;;71.05;46.22;;;;;;;18.54;46.91;99837.56;5030134;28;20069;-63
2022/08/22 03:09:55;;;;;;;72.13;45.97;;;;;;;18.53;47.04;99833.25;5031295;28;20056;-63
2022/08/22 03:13:13;;;;;;;70.97;47.13;;;;;;;18.52;47.25;99843.19;5030344;28;20045;-63
2022/08/22 03:15:54;;;;;;;80.20;46.15;;;;;;;18.52;47.40;99843.19;4997319;28;20066;-64
2022/08/22 03:18:23;;;;;;;78.30;47.80;;;;;;;18.50;47.32;99842.69;5029836;28;20037;-63
2022/08/22 03:21:08;;;;;;;75.03;46.08;;;;;;;18.50;47.63;99850.75;5013558;28;20495;-63
2022/08/22 03:23:53;;;;;;;80.43;47.72;;;;;;;18.51;47.51;99849.66;5030999;28;20046;-63
2022/08/22 03:26:31;;;;;;;73.75;47.50;;;;;;;18.51;47.55;99851.53;5013645;28;20502;-62
2022/08/22 03:29:11;;;;;;;75.88;47.33;;;;;;;18.49;47.81;99849.13;5034059;28;20049;-62
2022/08/22 03:31:38;;;;;;;;;;;;;;;18.47;47.87;99847.78;5035678;28;20084;-62
2022/08/22 03:34:20;;;;;;;75.40;47.67;;;;;;;18.46;48.26;99851.56;5033161;28;19925;-62
2022/08/22 03:37:05;;;;;;;78.05;46.35;;;;;;;18.44;48.13;99845.66;5001089;28;20041;-62
2022/08/22 03:39:55;;;;;;;70.22;47.25;;;;;;;18.45;48.26;99852.66;5033825;28;20038;-63
2022/08/22 03:42:56;;;;;;;75.57;46.40;;;;;;;18.48;48.02;99855.56;5034979;28;20513;-62
2022/08/22 03:45:41;;;;;;;73.22;47.05;;;;;;;18.52;47.66;99856.63;5016889;28;20037;-63
2022/08/22 03:48:13;;;;;;;72.88;46.67;;;;;;;18.57;47.55;99861.94;5033763;28;20046;-63
2022/08/22 03:50:57;;;;;;;78.78;46.17;;;;;;;18.60;47.59;99853.34;5034775;28;20062;-63
2022/08/22 03:53:44;;;;;;;74.60;45.83;;;;;;;18.67;47.28;99850.34;5034972;28;20041;-63
2022/08/22 03:56:19;;;;;;;68.00;46.42;;;;;;;18.73;46.91;99859.16;5034766;28;20041;-63
2022/08/22 03:58:44;;;;;;;71.10;47.13;;;;;;;18.76;46.84;99858.63;5033353;28;20683;-63
2022/08/22 04:01:32;;;;;;;71.38;46.03;;;;;;;18.81;46.68;99859.41;5034470;28;20045;-62
2022/08/22 04:04:09;;;;;;;72.10;45.38;;;;;;;18.85;46.83;99854.25;5032797;28;20037;-62
2022/08/22 04:07:19;;;;;;;71.70;47.03;;;;;;;18.86;47.17;99853.19;5034612;28;20542;-63
2022/08/22 04:10:27;;;;;;;71.95;46.55;;;;;;;18.85;47.46;99848.88;5034061;28;20057;-62
2022/08/22 04:13:04;;;;;;;70.85;45.22;;;;;;;18.84;47.74;99855.34;5033398;28;20517;-62
2022/08/22 04:16:07;;;;;;;71.10;45.17;;;;;;;18.81;47.79;99853.22;5034327;28;20519;-63
2022/08/22 04:19:15;;;;;;;71.05;46.55;;;;;;;18.76;47.88;99855.94;5034201;28;20057;-61
2022/08/22 04:21:53;;;;;;;69.90;45.65;;;;;;;18.77;47.76;99862.94;4992461;28;20461;-61
2022/08/22 04:24:28;;;;;;;71.47;48.20;;;;;;;18.75;47.69;99857.84;5028899;28;20041;-61
2022/08/22 04:26:59;;;;;;;79.70;49.72;;;;;;;18.73;48.05;99854.63;5034395;28;20516;-62
2022/08/22 04:29:42;;;;;;;78.03;48.25;;;;;;;18.77;47.85;99857.56;5032438;28;20041;-61
2022/08/22 04:32:10;;;;;;;72.28;47.65;;;;;;;18.75;47.88;99849.78;5034119;28;20402;-61
2022/08/22 04:34:45;;;;;;;73.75;48.85;;;;;;;18.82;47.97;99852.13;5032810;28;20049;-61
2022/08/22 04:37:19;;;;;;;73.28;49.30;;;;;;;18.87;47.58;99857.47;5032411;28;20048;-60
2022/08/22 04:40:13;;;;;;;74.22;48.83;;;;;;;18.94;47.39;99857.16;5031837;28;20128;-62
2022/08/22 04:43:17;;;;;;;75.68;50.47;;;;;;;19.03;46.68;99858.13;5031829;28;20048;-62
2022/08/22 04:46:12;;;;;;;81.70;50.20;;;;;;;19.16;46.53;99852.13;5033242;28;20053;-63
2022/08/22 04:48:51;;;;;;;79.28;50.90;;;;;;;19.24;46.45;99851.53;5025004;28;20095;-61
2022/08/22 04:51:33;;;;;;;82.15;50.45;;;;;;;19.26;46.16;99841.28;5032228;28;20124;-61
2022/08/22 04:54:24;;;;;;;75.93;51.85;;;;;;;19.29;45.66;99856.03;5032423;28;20048;-63
2022/08/22 04:57:11;;;;;;;85.82;54.22;;;;;;;19.27;45.89;99855.53;5032319;28;20395;-62
2022/08/22 04:59:37;;;;;;;84.80;54.33;;;;;;;19.31;45.66;99855.75;5033465;28;20400;-62
2022/08/22 05:02:07;;;;;;;78.10;54.50;;;;;;;19.29;46.58;99858.72;5032169;28;20050;-64
2022/08/22 05:04:46;;;;;;;;;;;;;;;19.30;45.67;99849.59;5033631;28;20065;-62
2022/08/22 05:07:19;;;;;;;82.47;55.38;;;;;;;19.29;45.99;99858.72;5032113;28;19932;-61
2022/08/22 05:09:48;;;;;;;89.78;56.70;;;;;;;19.29;46.47;99856.03;5032198;28;20049;-62
2022/08/22 05:12:19;;;;;;;80.20;57.13;;;;;;;19.30;46.27;99854.97;5031955;28;20057;-61
2022/08/22 05:14:54;;;;;;;88.25;57.22;;;;;;;19.31;46.79;99851.19;5029043;28;20044;-61
2022/08/22 05:17:23;;;;;;;86.80;58.90;;;;;;;19.37;46.00;99849.25;5014432;28;20053;-62
2022/08/22 05:19:54;;;;;;;92.65;60.05;;;;;;;19.39;46.21;99844.41;5032602;28;20034;-61
2022/08/22 05:22:20;;;;;;;;;;;;;;;19.46;46.13;99867.16;5032190;28;20103;-62
2022/08/22 05:24:49;;;;;;;91.28;59.75;;;;;;;19.50;46.12;99852.06;5031466;28;20409;-63
2022/08/22 05:27:20;;;;;;;91.70;59.28;;;;;;;19.59;46.43;99851.44;5031278;28;20060;-63
2022/08/22 05:29:49;;;;;;;93.72;60.75;;;;;;;19.63;46.14;99845.19;5030841;28;20052;-63
2022/08/22 05:32:43;;;;;;;91.22;62.67;;;;;;;19.64;46.04;99840.63;5012126;28;20124;-63
2022/08/22 05:35:09;;;;;;;90.78;62.17;;;;;;;19.66;46.14;99841.97;5030598;28;20088;-63
2022/08/22 05:37:50;;;;;;;91.57;63.20;;;;;;;19.70;45.83;99834.91;5029155;28;20116;-64
2022/08/22 05:40:28;;;;;;;93.30;64.55;;;;;;;19.78;45.73;99830.00;5030035;28;20410;-63
2022/08/22 05:42:56;;;;;;;95.90;66.40;;;;;;;19.80;45.62;99827.84;5029230;28;20046;-63
2022/08/22 05:45:23;;;;;;;97.10;64.20;;;;;;;19.76;45.65;99841.03;5028638;28;20110;-63
2022/08/22 05:48:16;;;;;;;105.88;69.68;;;;;;;19.83;45.42;99838.03;5030654;28;20053;-64
2022/08/22 05:50:47;;;;;;;101.88;67.82;;;;;;;19.90;45.33;99847.34;5026833;28;20111;-62
2022/08/22 05:53:26;;;;;;;104.65;70.07;;;;;;;19.99;45.10;99836.72;5025817;28;20057;-63
2022/08/22 05:56:02;;;;;;;99.80;72.32;;;;;;;20.08;44.92;99832.31;5022060;28;20390;-63
2022/08/22 05:58:43;;;;;;;114.05;71.05;;;;;;;20.14;44.66;99836.53;5028060;28;20033;-64
2022/08/22 06:01:22;;;;;;;105.78;71.85;;;;;;;20.17;44.78;99832.47;5029505;28;20051;-67
2022/08/22 06:04:07;;;;;;;106.88;72.13;;;;;;;20.28;44.17;99830.44;5029600;28;20065;-63
2022/08/22 06:06:38;;;;;;;110.35;71.78;;;;;;;20.43;43.90;99827.53;5022177;28;20037;-61
2022/08/22 06:09:17;;;;;;;114.72;76.00;;;;;;;20.57;43.58;99831.09;5012697;28;20033;-61
2022/08/22 06:12:07;;;;;;;106.80;74.75;;;;;;;20.73;44.40;99834.34;5009869;28;20057;-62
2022/08/22 06:14:51;;;;;;;100.32;72.57;;;;;;;20.87;43.01;99831.72;5009265;28;20050;-63
2022/08/22 06:17:25;;;;;;;105.93;74.95;;;;;;;20.95;43.09;99844.53;5011210;28;20045;-63
2022/08/22 06:19:52;;;;;;;109.05;76.03;;;;;;;21.10;43.26;99846.16;5009914;28;20057;-62
2022/08/22 06:22:22;;;;;;;114.97;77.97;;;;;;;21.22;42.75;99851.88;4991709;28;20400;-65
2022/08/22 06:24:48;;;;;;;;;;;;;;;21.31;42.69;99860.88;5010966;28;20515;-65
2022/08/22 06:27:15;;;;;;;118.25;80.13;;;;;;;21.36;42.48;99853.81;5010698;28;20453;-64
2022/08/22 06:29:51;;;;;;;117.35;78.68;;;;;;;21.39;42.51;99847.84;4984932;28;20064;-59
2022/08/22 06:32:21;;;;;;;110.28;75.95;;;;;;;21.47;42.66;99845.25;4992215;28;20529;-63
2022/08/22 06:34:48;;;;;;;113.75;78.03;;;;;;;21.58;41.86;99843.16;5010348;28;20179;-61
2022/08/22 06:37:30;;;;;;;109.50;75.78;;;;;;;21.76;41.48;99853.03;5025025;28;20046;-63
2022/08/22 06:39:57;;;;;;;106.57;75.10;;;;;;;21.91;41.39;99843.84;5010639;28;20076;-63
2022/08/22 06:42:28;;;;;;;106.00;75.63;;;;;;;22.00;41.61;99841.22;5010857;28;20041;-63
2022/08/22 06:45:05;;;;;;;114.57;77.10;;;;;;;22.08;41.47;99840.50;5009228;28;20124;-64
2022/08/22 06:47:43;;;;;;;107.35;76.93;;;;;;;22.09;41.50;99842.13;5009268;28;20050;-64
2022/08/22 06:50:10;;;;;;;112.55;77.35;;;;;;;22.09;41.03;99852.94;5011231;28;20046;-63
2022/08/22 06:52:47;;;;;;;109.65;77.13;;;;;;;22.06;41.59;99850.00;5010226;28;20483;-64
2022/08/22 06:55:14;;;;;;;114.85;78.13;;;;;;;22.01;41.30;99850.94;5028832;28;20521;-64
2022/08/22 06:57:50;;;;;;;112.32;80.35;;;;;;;22.01;41.41;99848.25;5030005;28;20080;-64
2022/08/22 07:00:16;;;;;;;113.00;82.47;;;;;;;22.02;41.48;99855.22;4979771;28;20038;-64
2022/08/22 07:03:07;;;;;;;117.07;82.22;;;;;;;22.03;41.86;99850.63;5027034;28;20050;-61
2022/08/22 07:05:37;;;;;;;114.78;80.22;;;;;;;22.09;41.81;99855.63;5024298;28;20470;-62
2022/08/22 07:08:11;;;;;;;114.35;80.10;;;;;;;22.19;41.66;99866.22;5012398;28;20041;-63
2022/08/22 07:10:44;;;;;;;114.57;83.55;;;;;;;22.29;41.35;99859.00;5028646;28;20045;-63
2022/08/22 07:13:18;;;;;;;115.63;81.57;;;;;;;22.41;41.86;99867.38;5028132;28;20048;-63
2022/08/22 07:15:52;;;;;;;119.57;82.43;;;;;;;22.51;41.83;99864.47;5029327;28;20540;-62
2022/08/22 07:18:22;;;;;;;119.80;81.93;;;;;;;22.70;41.79;99864.28;5028904;28;20609;-62
2022/08/22 07:20:51;;;;;;;116.53;82.38;;;;;;;22.90;40.82;99868.41;5027239;28;20064;-64
2022/08/22 07:23:39;;;;;;;120.70;81.20;;;;;;;23.04;40.26;99857.56;5029966;28;20421;-62
2022/08/22 07:26:23;;;;;;;121.90;84.10;;;;;;;23.33;39.90;99876.03;5028111;28;20033;-62
2022/08/22 07:28:59;;;;;;;119.18;84.13;;;;;;;23.61;40.42;99881.22;5030863;28;20064;-61
2022/08/22 07:31:38;;;;;;;125.65;83.88;;;;;;;23.85;38.61;99883.56;5027729;28;20056;-60
2022/08/22 07:34:16;;;;;;;125.72;85.22;;;;;;;23.97;39.22;99875.63;5010440;28;20199;-62
2022/08/22 07:37:02;;;;;;;118.35;84.85;;;;;;;24.01;38.12;99858.47;5020500;28;20137;-60
2022/08/22 07:39:35;;;;;;;117.18;84.55;;;;;;;24.07;37.53;99861.81;5028668;28;20055;-62
2022/08/22 07:42:12;;;;;;;110.13;79.85;;;;;;;24.15;37.38;99865.63;5030962;28;20041;-61
2022/08/22 07:44:56;;;;;;;111.20;79.68;;;;;;;24.27;36.65;99865.84;5012433;28;20637;-64
2022/08/22 07:47:26;;;;;;;113.07;79.28;;;;;;;24.38;37.51;99860.91;5030266;28;20061;-63
2022/08/22 07:50:01;;;;;;;118.22;80.15;;;;;;;24.41;37.34;99862.97;5029073;28;20057;-61
2022/08/22 07:52:35;;;;;;;111.65;79.60;;;;;;;24.35;37.22;99858.81;5029430;28;20059;-61
2022/08/22 07:55:12;;;;;;;111.88;80.30;;;;;;;24.35;37.17;99870.44;5027435;28;20129;-62
2022/08/22 07:57:40;;;;;;;106.93;77.18;;;;;;;24.45;37.32;99867.47;5029098;28;20179;-64
2022/08/22 08:00:13;;;;;;;114.45;81.97;;;;;;;24.57;36.98;99866.03;5007695;28;20038;-63
2022/08/22 08:02:44;;;;;;;112.72;80.18;;;;;;;24.72;37.25;99864.75;5018288;28;20423;-62
2022/08/22 08:05:11;;;;;;;111.78;80.63;;;;;;;24.88;36.67;99868.56;5014642;28;20046;-63
2022/08/22 08:07:39;;;;;;;110.30;80.00;;;;;;;25.00;36.52;99874.16;5027902;28;20077;-63
2022/08/22 08:10:08;;;;;;;103.80;72.85;;;;;;;25.04;36.31;99864.25;5028692;28;20068;-64
2022/08/22 08:12:43;;;;;;;101.40;73.47;;;;;;;25.12;35.61;99868.84;5027563;28;20046;-63
2022/08/22 08:15:17;;;;;;;101.18;69.18;;;;;;;25.28;35.71;99871.88;5032313;28;20491;-63
2022/08/22 08:17:44;;;;;;;91.38;61.97;;;;;;;25.44;34.74;99863.19;5016284;28;20042;-61
2022/08/22 08:20:14;;;;;;;92.57;62.50;;;;;;;25.49;33.61;99861.09;5033482;28;20096;-62
2022/08/22 08:22:42;;;;;;;90.88;62.72;;;;;;;25.60;33.79;99866.97;5032246;28;20049;-61
2022/08/22 08:25:12;;;;;;;84.53;59.97;;;;;;;25.76;33.05;99868.00;5016444;28;20043;-63
2022/08/22 08:30:36;;;;;;;84.78;58.92;;;;;;;25.91;32.76;99866.66;5014872;28;20061;-64
2022/08/22 08:33:04;;;;;;;92.47;63.10;;;;;;;25.99;33.09;99862.31;5033351;28;20561;-62
2022/08/22 08:35:35;;;;;;;82.30;61.33;;;;;;;26.14;32.69;99859.03;5031621;28;20041;-62
2022/08/22 08:38:08;;;;;;;91.32;62.53;;;;;;;26.25;32.45;99859.44;5032201;28;20136;-63
2022/08/22 08:40:40;;;;;;;84.35;59.60;;;;;;;26.32;32.46;99862.41;5031427;28;20141;-63
2022/08/22 08:43:44;;;;;;;94.88;61.05;;;;;;;26.36;32.31;99857.13;5012016;28;20498;-64
2022/08/22 08:46:29;;;;;;;107.28;64.50;;;;;;;26.39;33.12;99865.41;5010459;28;20471;-61
2022/08/22 08:49:13;;;;;;;89.43;61.35;;;;;;;26.45;32.68;99872.22;5033155;28;20050;-63
2022/08/22 08:52:09;;;;;;;91.05;63.03;;;;;;;26.39;32.94;99857.25;5031554;28;20526;-63
2022/08/22 08:54:54;;;;;;;94.00;61.45;;;;;;;26.40;32.21;99858.03;5032993;28;20052;-62
2022/08/22 08:57:48;;;;;;;92.88;61.25;;;;;;;26.44;33.29;99858.97;5032720;28;20048;-63
2022/08/22 09:00:20;;;;;;;87.95;59.85;;;;;;;26.51;34.19;99862.00;5009576;28;20415;-63
2022/08/22 09:03:04;;;;;;;87.75;59.30;;;;;;;26.40;32.98;99850.69;5031792;28;20049;-63
2022/08/22 09:05:48;;;;;;;82.93;60.90;;;;;;;26.51;33.02;99864.69;5021086;28;20119;-64
2022/08/22 09:08:26;;;;;;;91.38;61.38;;;;;;;26.40;32.75;99858.84;5031915;28;20057;-64
2022/08/22 09:10:58;;;;;;;90.10;60.83;;;;;;;26.40;33.51;99858.03;5031556;28;20057;-64
2022/08/22 09:13:32;;;;;;;88.43;60.88;;;;;;;26.51;33.26;99864.69;5031292;28;20140;-64
2022/08/22 09:16:23;;;;;;;86.30;61.58;;;;;;;26.58;33.25;99856.00;5031741;28;20479;-63
2022/08/22 09:18:58;;;;;;;92.15;61.80;;;;;;;26.62;33.03;99862.34;5031646;28;20469;-64
2022/08/22 09:22:11;;;;;;;90.80;62.72;;;;;;;26.54;33.62;99863.25;5030105;28;20103;-65
2022/08/22 09:25:13;;;;;;;93.72;65.90;;;;;;;26.51;33.64;99867.44;5008873;28;20049;-64
2022/08/22 09:28:12;;;;;;;90.10;65.03;;;;;;;26.53;33.75;99865.16;5030767;28;20095;-64
2022/08/22 09:31:06;;;;;;;103.07;65.68;;;;;;;26.68;33.72;99870.00;5021712;28;20080;-63
2022/08/22 09:33:50;;;;;;;95.72;65.47;;;;;;;26.85;32.91;99870.94;5030893;28;20053;-65
2022/08/22 09:36:24;;;;;;;95.65;65.10;;;;;;;27.04;33.41;99870.47;5030935;28;20490;-65
2022/08/22 09:38:54;;;;;;;100.82;68.97;;;;;;;27.08;31.91;99871.38;5006878;28;20131;-64
2022/08/22 09:41:22;;;;;;;104.40;73.65;;;;;;;27.12;32.99;99873.09;5026792;28;20130;-65
2022/08/22 09:44:25;;;;;;;107.03;72.15;;;;;;;27.32;32.49;99868.72;5029766;28;20039;-63
2022/08/22 09:47:30;;;;;;;98.70;69.43;;;;;;;27.45;32.70;99868.75;5023961;28;20600;-62
2022/08/22 09:50:35;;;;;;;102.28;73.05;;;;;;;27.54;33.17;99862.06;4955107;28;20050;-63
2022/08/22 09:53:07;;;;;;;96.60;70.43;;;;;;;27.69;32.74;99871.50;5018201;28;20049;-62
2022/08/22 09:56:04;;;;;;;96.18;70.30;;;;;;;27.83;32.33;99869.25;5029217;28;20056;-63
2022/08/22 09:58:56;;;;;;;87.47;60.08;;;;;;;27.94;30.64;99866.84;5028663;28;20056;-61
2022/08/22 10:01:54;;;;;;;85.07;57.17;;;;;;;27.99;32.19;99866.63;5028894;28;20418;-64
2022/08/22 10:04:38;;;;;;;90.50;56.35;;;;;;;28.03;30.41;99869.44;5028787;28;20038;-62
2022/08/22 10:07:13;;;;;;;83.82;58.65;;;;;;;28.11;30.84;99870.47;5024799;28;20049;-62
2022/08/22 10:09:45;;;;;;;79.70;56.55;;;;;;;28.23;32.90;99865.78;5029950;28;20056;-63
2022/08/22 10:12:16;;;;;;;88.20;63.50;;;;;;;28.23;31.13;99868.50;5028621;28;20049;-63
2022/08/22 10:14:49;;;;;;;85.18;59.95;;;;;;;28.23;31.62;99868.50;5029960;28;20124;-63
2022/08/22 10:17:29;;;;;;;83.45;59.88;;;;;;;28.14;32.65;99862.38;5010420;28;20038;-63
2022/08/22 10:20:04;;;;;;;59.97;47.28;;;;;;;27.95;31.83;99860.28;5016826;28;20045;-62
2022/08/22 10:22:55;;;;;;;58.35;36.92;;;;;;;27.87;30.61;99863.91;5018965;28;20044;-60
2022/08/22 10:25:29;;;;;;;51.80;39.63;;;;;;;27.87;30.59;99866.63;5021619;28;20045;-62
2022/08/22 10:28:48;;;;;;;48.72;32.17;;;;;;;27.83;30.32;99863.81;5027622;28;20120;-61
2022/08/22 10:31:26;;;;;;;46.55;31.83;;;;;;;27.89;31.16;99864.38;5018389;28;20088;-65
2022/08/22 10:34:16;;;;;;;41.93;28.73;;;;;;;27.97;30.14;99868.09;5022955;28;20534;-62
2022/08/22 10:36:52;;;;;;;44.75;27.90;;;;;;;28.06;30.14;99872.31;5011927;28;20045;-63
2022/08/22 10:39:23;;;;;;;43.90;27.88;;;;;;;28.12;29.31;99870.13;5020351;28;20038;-61
2022/08/22 10:42:08;;;;;;;44.78;28.63;;;;;;;28.11;29.50;99868.53;5025700;28;20120;-62
2022/08/22 10:44:47;;;;;;;45.38;28.08;;;;;;;28.13;30.24;99868.19;5010409;28;20073;-64
2022/08/22 10:47:22;;;;;;;46.30;28.67;;;;;;;28.14;29.81;99867.84;5013921;28;20099;-61
2022/08/22 10:49:54;;;;;;;37.88;28.92;;;;;;;28.14;29.60;99867.84;5011457;28;20052;-61
2022/08/22 10:52:23;;;;;;;40.25;26.60;;;;;;;28.11;29.52;99862.28;5029221;28;20111;-62
2022/08/22 10:54:59;;;;;;;36.45;25.73;;;;;;;28.08;29.76;99861.84;5028764;28;20044;-61
2022/08/22 10:57:37;;;;;;;37.00;26.67;;;;;;;28.13;29.57;99863.53;5028468;28;20046;-62
2022/08/22 11:00:13;;;;;;;42.95;25.77;;;;;;;28.09;29.48;99857.19;5030247;28;20041;-61
2022/08/22 11:02:52;;;;;;;41.38;26.30;;;;;;;28.10;30.36;99861.50;5028463;28;20042;-62
2022/08/22 11:05:31;;;;;;;37.55;25.20;;;;;;;28.08;29.56;99853.66;5028508;28;20429;-62
2022/08/22 11:08:12;;;;;;;36.08;25.13;;;;;;;28.11;30.17;99865.00;5011612;28;20147;-64
2022/08/22 11:10:47;;;;;;;31.83;21.90;;;;;;;28.14;29.12;99858.88;5028846;28;20056;-62
2022/08/22 11:13:25;;;;;;;33.50;22.27;;;;;;;28.21;29.42;99851.72;5030718;28;20075;-62
2022/08/22 11:15:51;;;;;;;40.00;21.17;;;;;;;28.25;29.67;99847.16;5028945;28;20103;-62
2022/08/22 11:18:35;;;;;;;26.55;19.50;;;;;;;28.33;28.26;99850.09;5031250;28;20041;-62
2022/08/22 11:21:27;;;;;;;28.40;18.83;;;;;;;28.34;27.57;99846.22;4993953;28;20096;-60
2022/08/22 11:24:06;;;;;;;25.83;17.10;;;;;;;28.33;28.34;99847.38;4979141;28;20056;-62
2022/08/22 11:26:49;;;;;;;25.77;16.83;;;;;;;28.33;28.32;99841.94;5025355;28;20494;-63
2022/08/22 11:29:34;;;;;;;29.05;18.42;;;;;;;28.36;28.78;99839.28;5028335;28;20042;-62
2022/08/22 11:32:14;;;;;;;32.28;18.20;;;;;;;28.38;28.68;99838.94;5030659;28;20470;-61
2022/08/22 11:34:45;;;;;;;27.58;17.23;;;;;;;28.33;28.74;99833.75;5027556;28;20050;-62
2022/08/22 11:37:16;;;;;;;24.90;15.25;;;;;;;28.27;27.83;99844.88;5028586;28;20471;-62
2022/08/22 11:39:57;;;;;;;29.15;14.30;;;;;;;28.20;27.95;99828.31;5028555;28;20057;-63
2022/08/22 11:42:36;;;;;;;30.98;14.82;;;;;;;28.19;27.64;99837.63;5029108;28;20051;-63
2022/08/22 11:45:05;;;;;;;23.10;14.45;;;;;;;28.17;28.78;99829.00;5027543;28;20040;-61
2022/08/22 11:47:41;;;;;;;22.75;14.00;;;;;;;28.23;28.04;99837.72;5031517;28;20486;-61
2022/08/22 11:50:14;;;;;;;21.75;13.95;;;;;;;28.26;28.11;99828.88;5027866;28;20495;-62
2022/08/22 11:52:43;;;;;;;25.08;13.10;;;;;;;28.24;28.43;99823.78;5032369;28;20045;-61
2022/08/22 11:55:15;;;;;;;19.35;12.32;;;;;;;28.25;28.58;99824.56;5034322;28;20060;-62
2022/08/22 11:58:01;;;;;;;18.33;12.10;;;;;;;28.25;27.66;99827.28;5034409;28;20040;-62
2022/08/22 12:01:11;;;;;;;18.17;11.07;;;;;;;28.28;26.90;99819.19;5037828;28;20393;-61
2022/08/22 12:03:41;;;;;;;21.27;11.88;;;;;;;28.34;27.65;99821.69;5019585;28;20046;-61
2022/08/22 12:06:26;;;;;;;21.80;12.70;;;;;;;28.33;27.60;99820.13;5026930;28;20053;-61
2022/08/22 12:09:12;;;;;;;19.88;13.10;;;;;;;28.37;27.31;99823.72;5027020;28;20144;-62
2022/08/22 12:11:45;;;;;;;22.30;12.85;;;;;;;28.43;27.46;99825.09;5033576;28;20079;-61
2022/08/22 12:14:31;;;;;;;23.60;13.50;;;;;;;28.40;27.97;99815.66;5016555;28;20049;-61
2022/08/22 12:17:14;;;;;;;22.27;12.35;;;;;;;28.38;27.44;99817.13;5034105;28;20091;-62
2022/08/22 12:20:18;;;;;;;18.00;11.25;;;;;;;28.31;27.79;99818.50;5032966;28;20055;-62